Time;durP1;ratioP1;P1;durP2;ratioP2;P2;SDS_P1;SDS_P2;PMS_P1;PMS_P2;Temp;Humidity;BMP_temperature;BMP_pressure;BME280_temperature;BME280_humidity;BME280_pressure;Samples;Min_cycle;Max_cycle;Signal;HPM_P1;HPM_P2
2023/08/03 00:00:51;;;;;;;117.03;18.60;;;;;;;26.10;53.57;102004.53;21083621;28;20048;-78
2023/08/03 00:10:52;;;;;;;107.20;18.42;;;;;;;26.43;52.25;102018.88;21098313;28;20032;-77
2023/08/03 00:20:53;;;;;;;94.10;15.80;;;;;;;26.56;52.00;102018.22;21080460;28;20395;-78
2023/08/03 00:30:55;;;;;;;72.32;14.07;;;;;;;26.78;51.71;102034.59;21087332;28;20044;-78
2023/08/03 00:40:56;;;;;;;74.10;13.77;;;;;;;26.76;51.60;102017.22;21087743;28;20829;-78
2023/08/03 00:50:57;;;;;;;60.15;13.23;;;;;;;27.02;51.72;102051.50;21085706;28;20371;-77
2023/08/03 01:00:59;;;;;;;58.95;12.00;;;;;;;27.13;51.86;102066.34;21084661;28;20027;-75
2023/08/03 01:11:00;;;;;;;66.07;11.82;;;;;;;27.13;51.43;102050.31;21087616;28;20040;-76
2023/08/03 01:21:08;;;;;;;49.58;11.02;;;;;;;27.28;50.98;102069.81;21086333;28;20043;-74
2023/08/03 01:31:10;;;;;;;40.97;9.82;;;;;;;27.34;50.61;102088.28;21010727;28;20037;-74
2023/08/03 01:41:11;;;;;;;28.55;7.47;;;;;;;27.35;50.27;102095.59;20935636;28;20110;-75
2023/08/03 01:51:18;;;;;;;27.58;8.15;;;;;;;27.29;50.43;102095.94;20950377;28;20479;-77
2023/08/03 02:01:20;;;;;;;22.95;7.43;;;;;;;27.49;49.94;102125.78;20950327;28;20536;-75
2023/08/03 02:11:26;;;;;;;21.70;6.80;;;;;;;27.50;49.74;102116.25;20916325;28;20045;-75
2023/08/03 02:21:27;;;;;;;21.65;6.82;;;;;;;27.35;49.63;102075.06;20945650;28;20028;-78
2023/08/03 02:31:28;;;;;;;21.27;6.57;;;;;;;27.47;49.33;102088.72;21055278;28;20127;-77
2023/08/03 02:41:31;;;;;;;16.02;5.10;;;;;;;27.51;49.16;102089.81;21080105;28;20043;-75
2023/08/03 02:51:32;;;;;;;14.32;4.85;;;;;;;27.59;48.78;102108.84;21079291;28;20093;-75
2023/08/03 03:01:34;;;;;;;11.90;4.47;;;;;;;27.62;48.70;102102.59;21078592;28;20032;-75
2023/08/03 03:11:37;;;;;;;11.40;3.72;;;;;;;27.59;48.47;102108.84;21078410;28;20024;-77
2023/08/03 03:21:38;;;;;;;7.32;3.42;;;;;;;27.64;48.61;102100.34;21076909;28;20044;-74
2023/08/03 03:31:39;;;;;;;17.65;3.95;;;;;;;27.34;48.60;102054.56;21075793;28;20036;-75
2023/08/03 03:41:41;;;;;;;6.60;3.28;;;;;;;27.67;48.33;102104.50;21076686;28;20085;-75
2023/08/03 03:51:42;;;;;;;7.80;3.30;;;;;;;27.69;48.21;102108.72;21077145;28;20459;-76
2023/08/03 04:01:43;;;;;;;7.07;3.05;;;;;;;27.67;48.37;102099.72;21077850;28;20040;-76
2023/08/03 04:11:45;;;;;;;5.55;2.45;;;;;;;27.31;48.30;102041.13;21106585;28;20040;-75
2023/08/03 04:21:46;;;;;;;3.50;2.10;;;;;;;27.71;48.08;102100.81;21127270;28;20108;-75
2023/08/03 04:31:48;;;;;;;3.80;2.28;;;;;;;27.64;48.15;102089.09;21082505;28;20475;-77
2023/08/03 04:41:49;;;;;;;4.28;2.30;;;;;;;27.39;47.90;102033.16;21077695;28;20036;-78
2023/08/03 04:51:50;;;;;;;3.75;1.98;;;;;;;27.76;48.13;102097.94;21089215;28;20036;-75
2023/08/03 05:01:52;;;;;;;3.53;2.10;;;;;;;27.71;47.96;102074.66;21088336;28;20085;-76
2023/08/03 05:11:53;;;;;;;3.22;2.10;;;;;;;27.72;47.87;102074.41;21087552;28;20069;-78
2023/08/03 05:21:54;;;;;;;4.13;2.10;;;;;;;27.77;47.82;102074.34;21087006;28;20028;-76
2023/08/03 05:31:56;;;;;;;2.05;1.70;;;;;;;27.78;47.97;102070.38;21087572;28;20564;-76
2023/08/03 05:42:00;;;;;;;3.10;2.05;;;;;;;27.74;47.90;102041.19;21085328;28;20047;-76
2023/08/03 05:52:01;;;;;;;1.92;1.50;;;;;;;27.65;48.07;102020.47;21084050;28;20024;-75
2023/08/03 06:02:20;;;;;;;1.77;1.33;;;;;;;27.48;47.92;101984.41;21081738;28;20078;-74
2023/08/03 06:12:21;;;;;;;2.25;1.80;;;;;;;27.69;47.79;102001.84;21083319;28;20032;-76
2023/08/03 06:22:23;;;;;;;1.60;1.27;;;;;;;27.56;47.91;101960.41;21082717;28;20059;-75
2023/08/03 06:32:27;;;;;;;2.65;1.45;;;;;;;27.75;47.70;101978.16;21080906;28;20364;-75
2023/08/03 06:42:39;;;;;;;1.55;1.45;;;;;;;27.71;47.85;101965.81;21079934;28;20052;-76
2023/08/03 06:52:40;;;;;;;2.20;1.30;;;;;;;27.78;47.79;101957.88;21078291;28;20038;-75
2023/08/03 07:02:47;;;;;;;1.75;1.30;;;;;;;27.71;47.75;101946.13;21069362;28;20373;-75
2023/08/03 07:12:48;;;;;;;1.37;1.20;;;;;;;27.74;47.65;101951.19;20996702;28;20028;-77
2023/08/03 07:22:49;;;;;;;1.45;1.20;;;;;;;27.64;47.75;101926.00;20993650;28;20036;-77
2023/08/03 07:32:57;;;;;;;1.45;1.20;;;;;;;27.68;47.76;101927.06;21010647;28;20049;-75
2023/08/03 07:43:01;;;;;;;1.88;1.30;;;;;;;27.76;47.85;101934.00;20993061;28;20048;-76
2023/08/03 07:53:04;;;;;;;1.40;1.10;;;;;;;27.59;47.51;101906.41;20990778;28;20110;-74
2023/08/03 08:03:06;;;;;;;1.67;1.20;;;;;;;27.76;47.49;101923.56;21011581;28;20044;-76
2023/08/03 08:13:07;;;;;;;1.30;1.20;;;;;;;27.76;47.66;101928.38;21074661;28;20032;-75
2023/08/03 08:23:09;;;;;;;1.33;1.20;;;;;;;27.76;47.75;101920.78;21087108;28;20549;-77
2023/08/03 08:33:11;;;;;;;1.67;1.40;;;;;;;27.72;47.75;101913.25;21093027;28;20564;-77
2023/08/03 08:43:12;;;;;;;1.23;1.13;;;;;;;27.69;47.66;101911.88;21092009;28;20044;-77
2023/08/03 08:53:14;;;;;;;1.67;1.20;;;;;;;27.80;47.41;101929.44;21075744;28;20388;-77
2023/08/03 09:03:16;;;;;;;1.40;1.02;;;;;;;27.68;47.63;101921.44;21015948;28;20040;-77
2023/08/03 09:13:40;;;;;;;1.20;1.10;;;;;;;27.71;47.95;101937.69;21027597;28;20039;-77
2023/08/03 09:23:42;;;;;;;1.20;1.15;;;;;;;27.73;47.60;101927.03;21090806;28;20040;-76
2023/08/03 09:33:58;;;;;;;1.33;1.23;;;;;;;27.66;47.58;101923.72;21037563;28;20051;-77
2023/08/03 09:44:05;;;;;;;1.25;1.00;;;;;;;27.75;47.46;101938.78;21040098;28;20056;-78
2023/08/03 09:54:17;;;;;;;2.58;1.58;;;;;;;27.78;47.54;101955.06;21105092;28;20094;-77
2023/08/03 10:04:22;;;;;;;1.75;1.20;;;;;;;27.76;47.51;101950.88;21070408;28;20047;-78
2023/08/03 10:14:32;;;;;;;1.67;1.40;;;;;;;27.74;47.59;101951.19;21068115;28;20044;-79
2023/08/03 10:24:33;;;;;;;1.60;1.30;;;;;;;27.73;47.74;101959.94;21081898;28;20040;-78
2023/08/03 10:34:37;;;;;;;1.48;1.30;;;;;;;27.76;47.54;101957.31;21063132;28;20074;-78
2023/08/03 10:44:41;;;;;;;1.23;1.13;;;;;;;27.76;47.40;101951.69;21081631;28;20097;-79
2023/08/03 10:54:43;;;;;;;1.33;1.20;;;;;;;27.62;47.89;101950.75;21080879;28;20027;-79
2023/08/03 11:04:58;;;;;;;1.27;1.17;;;;;;;27.71;47.58;101954.56;21079139;28;20036;-78
2023/08/03 11:15:06;;;;;;;2.25;1.40;;;;;;;27.72;47.70;101973.16;21084789;28;20032;-78
2023/08/03 11:25:08;;;;;;;1.33;1.23;;;;;;;27.73;47.95;101969.22;21084934;28;20036;-79
2023/08/03 11:35:10;;;;;;;1.75;1.65;;;;;;;27.74;47.86;101965.25;21072812;28;20472;-77
2023/08/03 11:45:12;;;;;;;2.35;1.33;;;;;;;27.59;47.59;101946.59;21044412;28;20105;-80
2023/08/03 11:55:33;;;;;;;1.55;1.10;;;;;;;27.64;48.07;101964.53;21091542;28;20073;-76
2023/08/03 12:05:53;;;;;;;1.70;1.25;;;;;;;27.65;47.91;101949.31;21110406;28;20074;-76
2023/08/03 12:15:55;;;;;;;1.35;1.10;;;;;;;27.73;47.62;101962.75;21104367;28;20044;-78
2023/08/03 12:25:56;;;;;;;1.40;1.30;;;;;;;27.73;47.85;101969.22;21086831;28;20031;-77
2023/08/03 12:35:57;;;;;;;1.83;1.42;;;;;;;27.69;47.89;101956.84;21073286;28;20044;-79
2023/08/03 12:45:59;;;;;;;1.73;1.52;;;;;;;27.75;47.87;101952.03;21070956;28;20036;-79
2023/08/03 12:56:01;;;;;;;1.98;1.48;;;;;;;27.49;47.60;101896.13;21051061;28;20439;-80
2023/08/03 13:06:02;;;;;;;1.77;1.40;;;;;;;27.74;47.90;101937.13;21054121;28;20109;-81
2023/08/03 13:16:05;;;;;;;1.90;1.38;;;;;;;27.78;47.75;101928.91;21086880;28;20024;-80
2023/08/03 13:26:07;;;;;;;2.78;1.40;;;;;;;27.65;48.08;101898.72;21075702;28;20037;-78
2023/08/03 13:36:08;;;;;;;2.63;1.85;;;;;;;27.70;48.01;101901.44;21136042;28;20032;-78
2023/08/03 13:46:10;;;;;;;4.13;1.45;;;;;;;27.67;48.04;101899.22;21052911;28;20052;-78
2023/08/03 13:56:11;;;;;;;2.08;1.20;;;;;;;27.51;48.19;101860.13;21058018;28;20074;-79
2023/08/03 14:06:12;;;;;;;1.50;1.40;;;;;;;27.68;48.10;101870.84;21018435;28;20066;-79
2023/08/03 14:16:17;;;;;;;1.65;1.30;;;;;;;27.68;48.13;101865.22;21031951;28;20025;-77
2023/08/03 14:26:18;;;;;;;2.58;1.70;;;;;;;27.64;48.26;101843.63;21098244;28;20077;-77
2023/08/03 14:36:20;;;;;;;3.03;1.50;;;;;;;27.63;48.23;101828.72;21052109;28;20086;-77
2023/08/03 14:46:21;;;;;;;5.00;1.60;;;;;;;27.73;48.17;101848.28;21085590;28;20456;-74
2023/08/03 14:56:22;;;;;;;5.35;1.55;;;;;;;27.73;48.52;101834.22;21081167;28;20028;-75
2023/08/03 15:06:24;;;;;;;8.77;1.83;;;;;;;27.71;48.35;101825.19;21067393;28;20031;-77
2023/08/03 15:16:25;;;;;;;3.55;1.80;;;;;;;27.76;48.19;101833.59;21084164;28;20036;-78
2023/08/03 15:26:28;;;;;;;3.80;1.73;;;;;;;27.74;48.28;101802.13;21065070;28;20039;-76
2023/08/03 15:36:40;;;;;;;3.83;1.90;;;;;;;27.75;48.26;101791.72;21080076;28;20036;-77
2023/08/03 15:46:41;;;;;;;3.22;2.03;;;;;;;27.73;48.09;101782.78;21099470;28;20044;-76
2023/08/03 15:56:43;;;;;;;13.65;2.20;;;;;;;27.73;48.15;101761.09;21099581;28;20041;-78
2023/08/03 16:06:44;;;;;;;7.20;2.13;;;;;;;27.72;47.81;101756.63;21068259;28;20040;-76
2023/08/03 16:16:45;;;;;;;6.10;2.33;;;;;;;27.77;48.13;101753.72;21083339;28;20040;-78
2023/08/03 16:26:47;;;;;;;6.25;2.47;;;;;;;27.76;48.05;101752.03;21085926;28;20094;-79
2023/08/03 16:36:48;;;;;;;3.40;2.42;;;;;;;27.82;47.87;101745.19;21086197;28;20032;-82
2023/08/03 16:46:50;;;;;;;4.55;2.47;;;;;;;27.69;47.66;101702.94;21111869;28;20372;-79
2023/08/03 16:56:51;;;;;;;4.55;2.33;;;;;;;27.83;47.71;101727.16;21098439;28;20040;-76
2023/08/03 17:06:53;;;;;;;6.68;2.60;;;;;;;27.79;47.67;101697.16;21029833;28;20106;-78
2023/08/03 17:16:55;;;;;;;9.65;4.28;;;;;;;27.81;47.96;101695.72;21094823;28;20052;-80
2023/08/03 17:26:56;;;;;;;8.95;3.33;;;;;;;27.79;47.71;101686.75;21090263;28;20040;-77
2023/08/03 17:36:57;;;;;;;12.32;3.45;;;;;;;27.87;47.83;101671.13;21086021;28;20040;-77
2023/08/03 17:46:59;;;;;;;11.75;4.00;;;;;;;27.94;47.96;101688.41;21088623;28;20067;-79
2023/08/03 17:57:01;;;;;;;14.55;4.45;;;;;;;27.95;48.13;101672.38;21085372;28;20024;-76
2023/08/03 18:07:02;;;;;;;27.63;5.20;;;;;;;27.92;47.95;101662.59;21087261;28;20048;-75
2023/08/03 18:17:04;;;;;;;21.75;5.80;;;;;;;27.96;48.02;101657.19;21094424;28;20035;-75
2023/08/03 18:27:09;;;;;;;25.95;6.43;;;;;;;27.96;48.16;101652.38;21069181;28;20044;-75
2023/08/03 18:37:13;;;;;;;26.65;6.88;;;;;;;27.94;48.36;101642.56;21082901;28;20048;-77
2023/08/03 18:47:15;;;;;;;29.73;7.90;;;;;;;27.75;48.32;101600.50;21081519;28;20089;-75
2023/08/03 18:57:16;;;;;;;27.75;8.60;;;;;;;27.85;48.47;101617.97;21080636;28;20032;-78
2023/08/03 19:07:17;;;;;;;35.47;8.07;;;;;;;27.92;48.40;101628.00;21081891;28;20097;-76
2023/08/03 19:17:19;;;;;;;37.60;8.60;;;;;;;27.94;48.57;101628.50;21053445;28;20036;-75
2023/08/03 19:27:23;;;;;;;26.45;9.10;;;;;;;27.98;48.51;101618.31;21051050;28;20505;-78
2023/08/03 19:37:24;;;;;;;34.50;10.82;;;;;;;28.02;48.66;101622.16;21079094;28;20503;-77
2023/08/03 19:47:26;;;;;;;19.10;9.95;;;;;;;28.02;48.76;101611.75;21087000;28;20028;-75
2023/08/03 19:57:27;;;;;;;33.22;10.98;;;;;;;28.03;48.70;101601.31;21077637;28;20039;-77
2023/08/03 20:07:31;;;;;;;23.33;11.38;;;;;;;27.99;48.89;101595.47;21043835;28;20053;-80
2023/08/03 20:17:35;;;;;;;22.67;11.68;;;;;;;27.93;48.72;101573.41;21045990;28;20036;-79
2023/08/03 20:27:36;;;;;;;21.20;10.48;;;;;;;28.05;48.69;101583.00;21094011;28;20105;-77
2023/08/03 20:37:38;;;;;;;20.13;9.70;;;;;;;28.05;48.85;101582.16;21095137;28;20040;-78
2023/08/03 20:47:39;;;;;;;21.58;9.85;;;;;;;28.01;48.62;101564.25;21094106;28;20471;-78
2023/08/03 20:57:40;;;;;;;18.42;10.48;;;;;;;28.05;48.85;101559.66;21089629;28;20058;-79
2023/08/03 21:07:42;;;;;;;22.45;10.32;;;;;;;27.98;49.07;101543.19;21065825;28;20395;-76
2023/08/03 21:17:43;;;;;;;20.88;8.73;;;;;;;28.01;49.07;101541.72;21008536;28;20041;-76
2023/08/03 21:27:44;;;;;;;19.13;8.60;;;;;;;28.06;48.95;101550.06;21022809;28;20040;-76
2023/08/03 21:37:46;;;;;;;32.10;9.65;;;;;;;28.04;49.16;101558.81;21156127;28;20047;-75
2023/08/03 21:47:47;;;;;;;26.17;9.73;;;;;;;27.62;49.23;101475.59;21089333;28;20036;-76
2023/08/03 21:58:04;;;;;;;24.13;10.02;;;;;;;28.05;49.35;101539.97;21049130;28;20032;-77
2023/08/03 22:08:06;;;;;;;27.88;9.70;;;;;;;28.05;49.41;101542.78;21066451;28;20396;-76
2023/08/03 22:18:07;;;;;;;21.45;9.73;;;;;;;28.07;49.22;101540.47;21082999;28;20406;-77
2023/08/03 22:28:09;;;;;;;23.95;10.32;;;;;;;28.05;49.34;101534.34;21083648;28;20035;-76
2023/08/03 22:38:10;;;;;;;22.65;9.63;;;;;;;28.06;49.34;101536.00;21045766;28;20036;-74
2023/08/03 22:48:12;;;;;;;21.60;9.13;;;;;;;27.66;49.46;101478.63;21034704;28;20048;-76
2023/08/03 22:58:16;;;;;;;23.23;8.88;;;;;;;28.05;49.47;101529.53;21044678;28;20032;-74
2023/08/03 23:08:17;;;;;;;20.67;8.32;;;;;;;27.88;49.53;101508.84;21015436;28;20040;-78
2023/08/03 23:18:19;;;;;;;15.23;7.82;;;;;;;27.95;49.63;101509.22;21073531;28;20027;-75
2023/08/03 23:28:20;;;;;;;16.58;8.23;;;;;;;28.07;49.56;101529.22;21121243;28;20035;-74
2023/08/03 23:38:25;;;;;;;17.65;7.30;;;;;;;27.97;49.62;101523.81;21026252;28;20036;-74
2023/08/03 23:48:26;;;;;;;17.17;7.18;;;;;;;28.10;49.45;101528.59;20992748;28;20484;-78
2023/08/03 23:58:27;;;;;;;17.75;7.05;;;;;;;28.08;49.46;101520.44;20975724;28;20033;-77
